Latest Coastal Weather Observations for Cape Borda

IDT60701

Issued at 2:52 pm EST Friday 24 May 2019 (issued every 10 minutes, with the page automatically refreshed every 10 minutes)

About coastal observations | Map of coastal stations | Coastal observations for TAS | Marine services | Other Formats
Station Details ID: 022823 Name: CAPE BORDA Lat: -35.75 Lon: 136.60 Height: 158.0 m
Data from the previous 72 hours. | See also: Recent months at Cape Borda
Date/Time
EST
Wind Sea
Height
m
Swell Vis
km
Cloud Weather Temp
°C
Press
hPa
Rain since
9am
mm
Dir  Spd
kts
Gust
kts
Height
m
Period
s
Dir
24/02:30pm W 11 16 - - - - - - - 16.2 1016.5 0.0
24/02:00pm W 12 16 - - - - - - - 16.6 1016.5 0.0
24/01:30pm WSW 11 15 - - - - - - - 16.2 1016.5 0.0
24/01:00pm WSW 14 17 - - - - - - - 16.4 1016.6 0.0
24/12:30pm WSW 12 16 - - - - - - - 16.9 1017.0 0.0
24/12:00pm WSW 11 17 - - - - - - - 16.9 1017.4 0.0
24/11:30am WSW 13 18 - - - - - - - 16.5 1017.1 0.0
24/11:00am WSW 14 18 - - - - - - - 16.8 1016.9 0.0
24/10:30am WSW 14 18 - - - - - - - 16.6 1016.9 0.0
24/10:00am WSW 14 17 - - - - - - - 16.5 1016.9 0.0
24/09:30am WSW 12 17 1 4.3 9 SW 15 Partly cloudy Haze 16.2 1017.0 0.0
24/09:00am WSW 14 18 - - - - - - - 15.9 1016.4 0.0
24/08:30am WSW 14 19 - - - - - - - 15.8 1016.0 0.0
24/08:00am WSW 13 19 - - - - - - - 15.9 1015.8 0.0
24/07:30am WSW 11 16 - - - - - - - 16.2 1015.3 0.0
24/07:00am W 13 17 - - - - - - - 16.7 1015.4 0.0
24/06:30am W 13 19 - - - - - - - 17.3 1014.9 0.0
24/06:00am NW 18 25 - - - - - - - 18.0 1014.6 0.0
24/05:30am NNW 13 21 - - - - - - - 17.9 1014.0 0.0
24/05:00am NNW 12 17 - - - - - - - 17.8 1013.8 0.0
24/04:30am N 12 19 - - - - - - - 17.8 1014.2 0.0
24/04:00am N 13 19 - - - - - - - 17.8 1014.6 0.0
24/03:30am NNW 13 18 - - - - - - - 18.0 1014.8 0.0
24/03:00am NNW 18 28 - - - - - - - 18.7 1015.6 0.0
24/02:59am NNW 18 28 - - - - - - - 18.8 1015.6 0.0
24/02:30am NNW 17 25 - - - - - - - 18.3 1016.1 0.0
24/02:00am NNW 24 34 - - - - - - - 18.3 1015.8 0.0
24/01:36am NNW 17 28 - - - - - - - 18.5 1016.5 0.0
24/01:34am NNW 16 23 - - - - - - - 18.1 1016.6 0.0
24/01:30am N 10 13 - - - - - - - 17.7 1017.0 0.0
24/01:00am NNE 11 16 - - - - - - - 17.2 1017.2 0.0
24/12:30am NE 12 17 - - - - - - - 16.0 1016.8 0.0
24/12:00am NE 13 17 - - - - - - - 15.5 1017.3 0.0
 
Date/Time
EST
Wind Sea
Height
m
Swell Vis
km
Cloud Weather Temp
°C
Press
hPa
Rain since
9am
mm
Dir  Spd
kts
Gust
kts
Height
m
Period
s
Dir
23/11:30pm NE 14 19 - - - - - - - 15.7 1017.3 0.0
23/11:00pm ENE 15 19 - - - - - - - 15.8 1017.3 0.0
23/10:30pm ENE 13 16 - - - - - - - 15.2 1017.4 0.0
23/10:00pm ENE 12 15 - - - - - - - 15.2 1018.1 0.0
23/09:30pm NE 11 14 - - - - - - - 15.5 1018.7 0.0
23/09:00pm NE 12 15 - - - - - - - 15.7 1018.5 0.0
23/08:30pm NE 9 13 - - - - - - - 15.7 1018.9 0.0
23/08:00pm ENE 8 9 - - - - - - - 14.8 1019.0 0.0
23/07:30pm ENE 5 7 - - - - - - - 14.6 1019.1 0.0
23/07:00pm ENE 7 10 - - - - - - - 14.7 1019.2 0.0
23/06:30pm ENE 9 10 - - - - - - - 14.8 1019.4 0.0
23/06:00pm NE 7 9 - - - - - - - 15.0 1019.4 0.0
23/05:30pm NE 7 9 - - - - - - - 15.4 1019.6 0.0
23/05:00pm NNE 7 8 - - - - - - - 16.0 1019.7 0.0
23/04:30pm NNE 7 9 - - - - - - - 16.5 1019.6 0.0
23/04:00pm NNE 9 11 - - - - - - - 17.3 1019.6 0.0
23/03:30pm N 9 11 - - - - - - - 17.2 1019.6 0.0
23/03:00pm N 8 10 - - - - - - - 17.6 1019.7 0.0
23/02:30pm NNW 7 8 - - - - - - - 17.0 1020.3 0.0
23/02:00pm NNW 7 9 - - - - - - - 16.4 1020.8 0.0
23/01:30pm NNW 9 11 - - - - - - - 17.3 1021.2 0.0
23/01:00pm N 8 9 - - - - - - - 17.2 1021.4 0.0
23/12:30pm N 7 9 - - - - - - - 17.4 1021.5 0.0
23/12:00pm N 7 8 - - - - - - - 16.7 1021.9 0.0
23/11:30am N 6 8 - - - - - - - 16.5 1022.4 0.0
23/11:00am N 7 9 - - - - - - - 16.7 1022.7 0.0
23/10:30am NNE 8 10 - - - - - - - 16.1 1022.7 0.0
23/10:00am NE 8 11 - - - - - - - 15.3 1022.9 0.0
23/09:30am NE 8 11 - - - - - - - 15.0 1023.2 0.2
23/09:00am NE 7 9 - - - - - - - 14.6 1023.4 0.2
23/08:30am NE 8 9 - - - - - - - 13.6 1023.2 0.2
23/08:00am NE 8 9 - - - - - - - 12.6 1023.1 0.0
23/07:30am ENE 8 9 - - - - - - - 11.7 1023.0 0.0
23/07:00am ENE 9 10 - - - - - - - 11.8 1022.9 0.0
23/06:30am NE 8 9 - - - - - - - 11.9 1023.0 0.0
23/06:00am NE 9 10 - - - - - - - 11.8 1023.2 0.0
23/05:30am ENE 9 10 - - - - - - - 11.4 1023.2 0.0
23/05:00am ENE 8 10 - - - - - - - 10.6 1023.2 0.0
23/04:30am ENE 9 10 - - - - - - - 10.6 1023.5 0.0
23/04:00am E 9 9 - - - - - - - 10.7 1023.9 0.0
23/03:30am ENE 9 11 - - - - - - - 11.1 1024.2 0.0
23/03:00am ENE 9 10 - - - - - - - 11.0 1024.4 0.0
23/02:30am ENE 9 10 - - - - - - - 9.8 1024.7 0.0
23/02:00am E 8 8 - - - - - - - 9.2 1024.7 0.0
23/01:30am ESE 8 9 - - - - - - - 8.7 1025.2 0.0
23/01:00am ESE 9 9 - - - - - - - 8.8 1025.4 0.0
23/12:30am ESE 8 9 - - - - - - - 9.0 1025.7 0.0
23/12:00am ESE 8 9 - - - - - - - 8.8 1025.9 0.0
 
Date/Time
EST
Wind Sea
Height
m
Swell Vis
km
Cloud Weather Temp
°C
Press
hPa
Rain since
9am
mm
Dir  Spd
kts
Gust
kts
Height
m
Period
s
Dir
22/11:30pm ESE 8 9 - - - - - - - 8.9 1026.3 0.0
22/11:00pm ESE 8 9 - - - - - - - 8.8 1026.4 0.0
22/10:30pm ESE 8 9 - - - - - - - 9.3 1026.6 0.0
22/10:00pm ESE 9 10 - - - - - - - 9.3 1026.5 0.0
22/09:30pm ESE 9 10 - - - - - - - 9.3 1026.6 0.0
22/09:00pm ESE 9 10 - - - - - - - 9.5 1026.6 0.0
22/08:30pm ESE 9 9 - - - - - - - 9.8 1026.8 0.0
22/08:00pm ESE 8 9 - - - - - - - 10.0 1026.7 0.0
22/07:30pm SE 8 9 - - - - - - - 10.3 1026.6 0.0
22/07:00pm SE 8 9 - - - - - - - 10.6 1026.5 0.0
22/06:30pm SE 8 9 - - - - - - - 11.3 1026.3 0.0
22/06:00pm SSE 9 9 - - - - - - - 12.3 1026.0 0.0
22/05:30pm S 7 8 - - - - - - - 14.3 1026.0 0.0
22/05:00pm SSW 8 9 - - - - - - - 15.1 1026.0 0.0
22/04:30pm SW 8 10 - - - - - - - 15.5 1026.0 0.0
22/04:00pm SW 7 9 - - - - - - - 16.0 1026.1 0.0
22/03:30pm SW 6 9 - - - - - - - 16.2 1026.1 0.0
22/03:00pm WSW 8 10 - - - - - - - 16.0 1026.3 0.0
22/02:30pm W 6 9 - - - - - - - 16.4 1026.4 0.0
22/02:00pm W 6 8 - - - - - - - 16.4 1026.5 0.0
22/01:30pm W 7 10 - - - - - - - 16.2 1026.7 0.0
22/01:00pm W 7 9 - - - - - - - 16.1 1027.2 0.0
22/12:30pm W 8 11 - - - - - - - 16.0 1027.8 0.0
22/12:00pm WSW 5 8 - - - - - - - 16.3 1028.0 0.0
22/11:30am S 4 7 - - - - - - - 15.8 1028.2 0.0
22/11:00am SE 7 10 - - - - - - - 15.4 1028.3 0.0
22/10:30am SSE 6 9 - - - - - - - 14.7 1028.3 0.0
22/10:00am S 5 7 - - - - - - - 13.7 1028.4 0.0
22/09:30am SSE 5 6 - - - - - - - 12.9 1028.1 0.2
22/09:00am SSE 6 7 - - - - - - - 11.8 1028.0 0.2
22/08:30am SSE 7 8 - - - - - - - 10.8 1027.6 0.2
22/08:00am S 7 8 - - - - - - - 10.3 1027.2 0.2
22/07:30am S 7 8 - - - - - - - 10.2 1026.9 0.0
22/07:00am S 6 7 - - - - - - - 10.2 1026.7 0.0
22/06:30am S 6 7 - - - - - - - 10.4 1026.4 0.0
22/06:00am SSE 7 7 - - - - - - - 10.2 1026.0 0.0
22/05:30am S 6 7 - - - - - - - 10.5 1026.0 0.0
22/05:00am S 7 7 - - - - - - - 11.0 1025.9 0.0
22/04:30am S 6 7 - - - - - - - 11.3 1025.8 0.0
22/04:00am S 7 8 - - - - - - - 11.6 1025.6 0.0
22/03:30am S 5 6 - - - - - - - 12.2 1025.6 0.0
22/03:00am SW 6 7 - - - - - - - 12.3 1025.5 0.0
22/02:30am SSW 6 8 - - - - - - - 12.6 1025.4 0.0
22/02:00am SW 7 8 - - - - - - - 12.8 1025.2 0.0
22/01:30am SW 7 8 - - - - - - - 12.6 1025.1 0.0
22/01:00am SW 7 8 - - - - - - - 12.8 1025.0 0.0
22/12:30am SW 7 8 - - - - - - - 13.3 1024.9 0.0
22/12:00am SW 7 9 - - - - - - - 13.3 1024.7 0.0
 
Date/Time
EST
Wind Sea
Height
m
Swell Vis
km
Cloud Weather Temp
°C
Press
hPa
Rain since
9am
mm
Dir  Spd
kts
Gust
kts
Height
m
Period
s
Dir
21/11:30pm WSW 5 7 - - - - - - - 13.5 1024.8 0.0
21/11:00pm SW 7 9 - - - - - - - 13.9 1024.8 0.0
21/10:30pm SW 6 7 - - - - - - - 14.1 1024.7 0.0
21/10:00pm SSW 6 7 - - - - - - - 13.8 1024.6 0.0
21/09:30pm SW 6 7 - - - - - - - 14.2 1024.3 0.0
21/09:00pm SW 6 7 - - - - - - - 14.9 1024.1 0.0
21/08:30pm SSW 4 5 - - - - - - - 14.9 1023.9 0.0
21/08:00pm NNW 5 6 - - - - - - - 15.6 1023.5 0.0
21/07:30pm NNW 4 6 - - - - - - - 15.2 1023.2 0.0
21/07:00pm NW 5 6 - - - - - - - 15.6 1023.0 0.0
21/06:30pm NNW 5 6 - - - - - - - 15.5 1022.6 0.0
21/06:00pm NW 5 6 - - - - - - - 15.7 1022.4 0.0
21/05:30pm NW 6 7 - - - - - - - 16.8 1022.2 0.0
21/05:00pm NW 6 7 - - - - - - - 17.5 1022.1 0.0
21/04:30pm WNW 6 9 - - - - - - - 17.9 1021.9 0.0
21/04:00pm NW 7 9 - - - - - - - 17.7 1021.6 0.0
21/03:30pm NW 7 9 <0.5 2.8 7 SW 22 Mostly clear Fine 18.1 1021.3 0.0

Other formats

Comma delimited format used in spreadsheet applications
http://www.bom.gov.au/fwo/IDT60701/IDT60701.95805.axf

JavaScript Object Notation format (JSON) in row-major order
http://www.bom.gov.au/fwo/IDT60701/IDT60701.95805.json

Data quality

Most of these data are generated automatically and are frequently updated. Quality checks on data are not normally performed. It is possible for incorrect values to appear. Refer to information at About Latest Weather Observations and please check the disclaimer before using these data.